sensor_id;sensor_type;location;lat;lon;timestamp;pressure;altitude;pressure_sealevel;temperature;humidity
61035;BME280;46916;40.564;-7.958;2022-10-04T00:02:38;97908.84;;;20.09;48.67
61035;BME280;46916;40.564;-7.958;2022-10-04T00:04:52;97901.69;;;20.10;48.82
61035;BME280;46916;40.564;-7.958;2022-10-04T00:07:04;97899.88;;;20.10;49.20
61035;BME280;46916;40.564;-7.958;2022-10-04T00:09:12;97890.06;;;20.11;49.07
61035;BME280;46916;40.564;-7.958;2022-10-04T00:13:22;97893.38;;;20.13;49.06
61035;BME280;46916;40.564;-7.958;2022-10-04T00:15:35;97889.69;;;20.14;48.93
61035;BME280;46916;40.564;-7.958;2022-10-04T00:17:36;97878.25;;;20.13;48.92
61035;BME280;46916;40.564;-7.958;2022-10-04T00:19:44;97886.22;;;20.13;48.89
61035;BME280;46916;40.564;-7.958;2022-10-04T00:24:09;97887.19;;;20.12;48.94
61035;BME280;46916;40.564;-7.958;2022-10-04T00:30:23;97881.44;;;20.09;49.07
61035;BME280;46916;40.564;-7.958;2022-10-04T00:32:27;97882.63;;;20.06;49.33
61035;BME280;46916;40.564;-7.958;2022-10-04T00:36:44;97869.94;;;19.93;49.90
61035;BME280;46916;40.564;-7.958;2022-10-04T00:41:07;97881.09;;;19.89;50.37
61035;BME280;46916;40.564;-7.958;2022-10-04T00:45:46;97874.09;;;19.88;50.21
61035;BME280;46916;40.564;-7.958;2022-10-04T00:52:12;97868.34;;;19.84;49.84
61035;BME280;46916;40.564;-7.958;2022-10-04T00:54:19;97867.03;;;19.80;50.09
61035;BME280;46916;40.564;-7.958;2022-10-04T00:56:30;97868.03;;;19.79;50.28
61035;BME280;46916;40.564;-7.958;2022-10-04T01:00:56;97869.28;;;19.68;50.16
61035;BME280;46916;40.564;-7.958;2022-10-04T01:03:09;97873.94;;;19.66;50.37
61035;BME280;46916;40.564;-7.958;2022-10-04T01:05:19;97875.28;;;19.62;50.23
61035;BME280;46916;40.564;-7.958;2022-10-04T01:07:28;97869.31;;;19.60;50.52
61035;BME280;46916;40.564;-7.958;2022-10-04T01:09:32;97870.47;;;19.58;50.53
61035;BME280;46916;40.564;-7.958;2022-10-04T01:11:40;97877.16;;;19.53;50.83
61035;BME280;46916;40.564;-7.958;2022-10-04T01:13:47;97871.19;;;19.51;50.76
61035;BME280;46916;40.564;-7.958;2022-10-04T01:16:00;97870.34;;;19.51;50.79
61035;BME280;46916;40.564;-7.958;2022-10-04T01:18:29;97863.22;;;19.51;50.61
61035;BME280;46916;40.564;-7.958;2022-10-04T01:20:34;97870.00;;;19.54;50.95
61035;BME280;46916;40.564;-7.958;2022-10-04T01:22:41;97865.34;;;19.56;50.98
61035;BME280;46916;40.564;-7.958;2022-10-04T01:24:43;97856.56;;;19.55;50.92
61035;BME280;46916;40.564;-7.958;2022-10-04T01:26:45;97851.94;;;19.49;51.21
61035;BME280;46916;40.564;-7.958;2022-10-04T01:28:46;97857.44;;;19.48;51.26
61035;BME280;46916;40.564;-7.958;2022-10-04T01:30:47;97854.78;;;19.48;51.44
61035;BME280;46916;40.564;-7.958;2022-10-04T01:32:47;97857.25;;;19.49;51.52
61035;BME280;46916;40.564;-7.958;2022-10-04T01:34:48;97849.63;;;19.46;51.75
61035;BME280;46916;40.564;-7.958;2022-10-04T01:36:51;97850.00;;;19.43;51.94
61035;BME280;46916;40.564;-7.958;2022-10-04T01:38:54;97841.41;;;19.33;52.27
61035;BME280;46916;40.564;-7.958;2022-10-04T01:40:57;97846.41;;;19.28;52.37
61035;BME280;46916;40.564;-7.958;2022-10-04T01:43:06;97840.81;;;19.23;52.25
61035;BME280;46916;40.564;-7.958;2022-10-04T01:45:23;97835.50;;;19.23;52.30
61035;BME280;46916;40.564;-7.958;2022-10-04T01:47:31;97840.44;;;19.26;52.31
61035;BME280;46916;40.564;-7.958;2022-10-04T01:49:37;97844.78;;;19.27;52.40
61035;BME280;46916;40.564;-7.958;2022-10-04T01:52:02;97840.94;;;19.29;51.99
61035;BME280;46916;40.564;-7.958;2022-10-04T01:54:12;97836.28;;;19.32;52.03
61035;BME280;46916;40.564;-7.958;2022-10-04T01:56:21;97845.72;;;19.34;52.15
61035;BME280;46916;40.564;-7.958;2022-10-04T01:58:26;97840.41;;;19.34;51.98
61035;BME280;46916;40.564;-7.958;2022-10-04T02:00:30;97839.56;;;19.34;51.97
61035;BME280;46916;40.564;-7.958;2022-10-04T02:04:41;97840.81;;;19.23;52.29
61035;BME280;46916;40.564;-7.958;2022-10-04T02:06:43;97838.50;;;19.20;52.32
61035;BME280;46916;40.564;-7.958;2022-10-04T02:08:48;97832.19;;;19.21;52.42
61035;BME280;46916;40.564;-7.958;2022-10-04T02:10:50;97830.53;;;19.20;52.47
61035;BME280;46916;40.564;-7.958;2022-10-04T02:12:52;97837.16;;;19.24;52.34
61035;BME280;46916;40.564;-7.958;2022-10-04T02:14:54;97832.47;;;19.26;51.99
61035;BME280;46916;40.564;-7.958;2022-10-04T02:16:57;97827.66;;;19.29;51.69
61035;BME280;46916;40.564;-7.958;2022-10-04T02:18:59;97827.66;;;19.29;51.47
61035;BME280;46916;40.564;-7.958;2022-10-04T02:21:04;97832.31;;;19.27;51.65
61035;BME280;46916;40.564;-7.958;2022-10-04T02:23:06;97824.56;;;19.18;51.92
61035;BME280;46916;40.564;-7.958;2022-10-04T02:25:09;97819.28;;;19.10;52.16
61035;BME280;46916;40.564;-7.958;2022-10-04T02:27:10;97814.72;;;18.95;52.70
61035;BME280;46916;40.564;-7.958;2022-10-04T02:29:11;97819.94;;;18.80;52.96
61035;BME280;46916;40.564;-7.958;2022-10-04T02:31:12;97816.47;;;18.80;53.00
61035;BME280;46916;40.564;-7.958;2022-10-04T02:33:31;97819.28;;;18.78;53.23
61035;BME280;46916;40.564;-7.958;2022-10-04T02:35:44;97808.53;;;18.72;53.46
61035;BME280;46916;40.564;-7.958;2022-10-04T02:37:54;97811.38;;;18.62;53.64
61035;BME280;46916;40.564;-7.958;2022-10-04T02:40:12;97813.03;;;18.55;53.73
61035;BME280;46916;40.564;-7.958;2022-10-04T02:49:36;97800.88;;;18.69;53.29
61035;BME280;46916;40.564;-7.958;2022-10-04T02:51:43;97800.38;;;18.65;53.37
61035;BME280;46916;40.564;-7.958;2022-10-04T02:54:17;97798.09;;;18.62;53.33
61035;BME280;46916;40.564;-7.958;2022-10-04T02:56:16;97804.91;;;18.56;53.44
61035;BME280;46916;40.564;-7.958;2022-10-04T02:58:20;97793.94;;;18.60;53.48
61035;BME280;46916;40.564;-7.958;2022-10-04T03:00:25;97798.44;;;18.59;53.39
61035;BME280;46916;40.564;-7.958;2022-10-04T03:02:29;97782.38;;;18.52;53.53
61035;BME280;46916;40.564;-7.958;2022-10-04T03:04:32;97776.78;;;18.39;53.72
61035;BME280;46916;40.564;-7.958;2022-10-04T03:06:38;97780.63;;;18.28;53.97
61035;BME280;46916;40.564;-7.958;2022-10-04T03:08:52;97780.16;;;18.17;54.23
61035;BME280;46916;40.564;-7.958;2022-10-04T03:10:54;97778.34;;;18.09;54.28
61035;BME280;46916;40.564;-7.958;2022-10-04T03:12:55;97776.22;;;17.96;54.47
61035;BME280;46916;40.564;-7.958;2022-10-04T03:14:56;97772.28;;;17.84;54.83
61035;BME280;46916;40.564;-7.958;2022-10-04T03:17:00;97776.72;;;17.75;55.13
61035;BME280;46916;40.564;-7.958;2022-10-04T03:19:01;97776.38;;;17.70;55.23
61035;BME280;46916;40.564;-7.958;2022-10-04T03:21:07;97774.03;;;17.67;55.24
61035;BME280;46916;40.564;-7.958;2022-10-04T03:23:10;97774.72;;;17.69;55.21
61035;BME280;46916;40.564;-7.958;2022-10-04T03:25:16;97776.88;;;17.74;55.04
61035;BME280;46916;40.564;-7.958;2022-10-04T03:27:23;97779.38;;;17.75;54.93
61035;BME280;46916;40.564;-7.958;2022-10-04T03:29:27;97779.22;;;17.77;54.85
61035;BME280;46916;40.564;-7.958;2022-10-04T03:31:30;97775.25;;;17.81;54.72
61035;BME280;46916;40.564;-7.958;2022-10-04T03:33:32;97777.56;;;17.84;54.31
61035;BME280;46916;40.564;-7.958;2022-10-04T03:35:36;97774.94;;;17.76;54.41
61035;BME280;46916;40.564;-7.958;2022-10-04T03:37:38;97770.56;;;17.67;54.63
61035;BME280;46916;40.564;-7.958;2022-10-04T03:39:46;97770.75;;;17.65;54.75
61035;BME280;46916;40.564;-7.958;2022-10-04T03:41:48;97779.53;;;17.57;54.85
61035;BME280;46916;40.564;-7.958;2022-10-04T03:43:49;97778.88;;;17.55;55.21
61035;BME280;46916;40.564;-7.958;2022-10-04T03:45:50;97783.31;;;17.47;55.47
61035;BME280;46916;40.564;-7.958;2022-10-04T03:47:52;97785.63;;;17.42;55.85
61035;BME280;46916;40.564;-7.958;2022-10-04T03:49:59;97777.84;;;17.32;55.82
61035;BME280;46916;40.564;-7.958;2022-10-04T03:52:03;97781.13;;;17.26;56.18
61035;BME280;46916;40.564;-7.958;2022-10-04T03:54:06;97790.09;;;17.25;56.21
61035;BME280;46916;40.564;-7.958;2022-10-04T03:56:30;97784.97;;;17.23;56.12
61035;BME280;46916;40.564;-7.958;2022-10-04T03:58:32;97787.44;;;17.25;55.96
61035;BME280;46916;40.564;-7.958;2022-10-04T04:01:01;97786.28;;;17.27;55.88
61035;BME280;46916;40.564;-7.958;2022-10-04T04:03:00;97779.31;;;17.26;55.90
61035;BME280;46916;40.564;-7.958;2022-10-04T04:09:32;97777.84;;;17.24;55.85
61035;BME280;46916;40.564;-7.958;2022-10-04T04:11:38;97780.16;;;17.19;55.96
61035;BME280;46916;40.564;-7.958;2022-10-04T04:14:31;97785.94;;;17.22;55.99
61035;BME280;46916;40.564;-7.958;2022-10-04T04:16:25;97783.78;;;17.18;55.75
61035;BME280;46916;40.564;-7.958;2022-10-04T04:18:29;97791.41;;;17.21;55.63
61035;BME280;46916;40.564;-7.958;2022-10-04T04:20:34;97789.75;;;17.28;55.41
61035;BME280;46916;40.564;-7.958;2022-10-04T04:22:36;97785.94;;;17.39;55.14
61035;BME280;46916;40.564;-7.958;2022-10-04T04:24:39;97793.06;;;17.46;54.78
61035;BME280;46916;40.564;-7.958;2022-10-04T04:26:46;97787.13;;;17.52;54.81
61035;BME280;46916;40.564;-7.958;2022-10-04T04:29:01;97781.84;;;17.52;54.37
61035;BME280;46916;40.564;-7.958;2022-10-04T04:31:32;97774.41;;;17.56;54.36
61035;BME280;46916;40.564;-7.958;2022-10-04T04:33:42;97780.19;;;17.60;54.01
61035;BME280;46916;40.564;-7.958;2022-10-04T04:35:43;97781.53;;;17.64;53.99
61035;BME280;46916;40.564;-7.958;2022-10-04T04:37:44;97780.19;;;17.68;53.96
61035;BME280;46916;40.564;-7.958;2022-10-04T04:40:30;97782.69;;;17.77;53.81
61035;BME280;46916;40.564;-7.958;2022-10-04T04:42:32;97775.91;;;17.83;53.64
61035;BME280;46916;40.564;-7.958;2022-10-04T04:44:36;97777.41;;;17.86;53.72
61035;BME280;46916;40.564;-7.958;2022-10-04T04:46:37;97770.94;;;17.88;53.65
61035;BME280;46916;40.564;-7.958;2022-10-04T04:48:42;97778.38;;;17.93;53.62
61035;BME280;46916;40.564;-7.958;2022-10-04T04:50:55;97784.34;;;17.95;53.41
61035;BME280;46916;40.564;-7.958;2022-10-04T04:52:59;97785.81;;;17.97;53.40
61035;BME280;46916;40.564;-7.958;2022-10-04T04:55:03;97787.66;;;17.97;53.40
61035;BME280;46916;40.564;-7.958;2022-10-04T04:57:04;97787.47;;;17.98;53.34
61035;BME280;46916;40.564;-7.958;2022-10-04T04:59:06;97792.59;;;18.00;53.53
61035;BME280;46916;40.564;-7.958;2022-10-04T05:01:23;97795.09;;;18.01;53.47
61035;BME280;46916;40.564;-7.958;2022-10-04T05:03:25;97792.13;;;18.04;53.43
61035;BME280;46916;40.564;-7.958;2022-10-04T05:07:28;97793.25;;;18.10;53.32
61035;BME280;46916;40.564;-7.958;2022-10-04T05:11:36;97790.09;;;18.15;53.18
61035;BME280;46916;40.564;-7.958;2022-10-04T05:13:54;97784.97;;;18.13;52.87
61035;BME280;46916;40.564;-7.958;2022-10-04T05:15:58;97792.75;;;18.06;52.89
61035;BME280;46916;40.564;-7.958;2022-10-04T05:18:00;97785.00;;;18.05;53.12
61035;BME280;46916;40.564;-7.958;2022-10-04T05:20:02;97788.97;;;18.01;53.15
61035;BME280;46916;40.564;-7.958;2022-10-04T05:22:11;97787.97;;;17.94;53.25
61035;BME280;46916;40.564;-7.958;2022-10-04T05:24:23;97792.78;;;17.98;53.13
61035;BME280;46916;40.564;-7.958;2022-10-04T05:26:28;97793.44;;;18.00;52.98
61035;BME280;46916;40.564;-7.958;2022-10-04T05:28:29;97790.44;;;17.95;53.01
61035;BME280;46916;40.564;-7.958;2022-10-04T05:30:41;97791.28;;;17.88;53.36
61035;BME280;46916;40.564;-7.958;2022-10-04T05:33:02;97803.56;;;17.80;53.56
61035;BME280;46916;40.564;-7.958;2022-10-04T05:35:14;97800.41;;;17.77;53.69
61035;BME280;46916;40.564;-7.958;2022-10-04T05:37:20;97803.56;;;17.80;53.63
61035;BME280;46916;40.564;-7.958;2022-10-04T05:39:35;97796.13;;;17.84;53.54
61035;BME280;46916;40.564;-7.958;2022-10-04T05:41:45;97793.59;;;17.91;53.46
61035;BME280;46916;40.564;-7.958;2022-10-04T05:43:50;97795.75;;;17.95;53.40
61035;BME280;46916;40.564;-7.958;2022-10-04T05:48:11;97802.72;;;18.04;53.09
61035;BME280;46916;40.564;-7.958;2022-10-04T05:50:19;97798.75;;;18.09;53.10
61035;BME280;46916;40.564;-7.958;2022-10-04T05:52:37;97794.25;;;18.09;52.92
61035;BME280;46916;40.564;-7.958;2022-10-04T05:54:39;97800.22;;;18.11;53.06
61035;BME280;46916;40.564;-7.958;2022-10-04T06:03:38;97801.72;;;17.89;53.05
61035;BME280;46916;40.564;-7.958;2022-10-04T06:05:54;97797.91;;;17.83;53.08
61035;BME280;46916;40.564;-7.958;2022-10-04T06:08:21;97800.72;;;17.74;52.95
61035;BME280;46916;40.564;-7.958;2022-10-04T06:12:49;97814.63;;;17.51;53.28
61035;BME280;46916;40.564;-7.958;2022-10-04T06:15:09;97814.94;;;17.40;53.45
61035;BME280;46916;40.564;-7.958;2022-10-04T06:17:37;97810.44;;;17.32;53.44
61035;BME280;46916;40.564;-7.958;2022-10-04T06:22:18;97812.44;;;17.39;53.23
61035;BME280;46916;40.564;-7.958;2022-10-04T06:24:27;97814.44;;;17.45;53.16
61035;BME280;46916;40.564;-7.958;2022-10-04T06:26:38;97812.44;;;17.47;52.83
61035;BME280;46916;40.564;-7.958;2022-10-04T06:28:51;97813.75;;;17.51;52.82
61035;BME280;46916;40.564;-7.958;2022-10-04T06:47:30;97815.72;;;17.24;53.16
61035;BME280;46916;40.564;-7.958;2022-10-04T06:49:44;97806.63;;;17.19;53.18
61035;BME280;46916;40.564;-7.958;2022-10-04T07:05:14;97820.19;;;17.16;53.27
61035;BME280;46916;40.564;-7.958;2022-10-04T07:09:26;97815.84;;;17.06;55.08
61035;BME280;46916;40.564;-7.958;2022-10-04T07:11:37;97820.78;;;17.01;54.58
61035;BME280;46916;40.564;-7.958;2022-10-04T07:13:50;97823.44;;;17.01;54.35
61035;BME280;46916;40.564;-7.958;2022-10-04T07:16:01;97823.63;;;17.08;54.18
61035;BME280;46916;40.564;-7.958;2022-10-04T07:18:09;97816.00;;;17.05;53.92
61035;BME280;46916;40.564;-7.958;2022-10-04T07:20:20;97826.03;;;16.93;53.99
61035;BME280;46916;40.564;-7.958;2022-10-04T07:22:36;97816.13;;;16.87;53.88
61035;BME280;46916;40.564;-7.958;2022-10-04T07:26:52;97820.78;;;17.01;53.43
61035;BME280;46916;40.564;-7.958;2022-10-04T07:28:57;97826.91;;;17.10;53.12
61035;BME280;46916;40.564;-7.958;2022-10-04T07:31:30;97827.78;;;17.11;52.83
61035;BME280;46916;40.564;-7.958;2022-10-04T07:33:55;97831.63;;;17.32;55.32
61035;BME280;46916;40.564;-7.958;2022-10-04T07:36:10;97827.53;;;17.63;54.81
61035;BME280;46916;40.564;-7.958;2022-10-04T07:40:27;97836.31;;;18.04;53.76
61035;BME280;46916;40.564;-7.958;2022-10-04T07:42:53;97839.13;;;18.27;52.96
61035;BME280;46916;40.564;-7.958;2022-10-04T07:47:18;97852.50;;;18.50;51.85
61035;BME280;46916;40.564;-7.958;2022-10-04T07:49:21;97848.84;;;18.51;51.53
61035;BME280;46916;40.564;-7.958;2022-10-04T07:51:29;97848.84;;;18.51;51.24
61035;BME280;46916;40.564;-7.958;2022-10-04T07:56:01;97855.97;;;18.59;50.98
61035;BME280;46916;40.564;-7.958;2022-10-04T08:00:26;97864.91;;;18.74;50.95
61035;BME280;46916;40.564;-7.958;2022-10-04T08:03:11;97871.53;;;18.78;50.58
61035;BME280;46916;40.564;-7.958;2022-10-04T08:05:41;97868.84;;;18.86;50.58
61035;BME280;46916;40.564;-7.958;2022-10-04T08:10:39;97871.03;;;19.14;50.72
61035;BME280;46916;40.564;-7.958;2022-10-04T08:15:38;97880.94;;;19.28;50.21
61035;BME280;46916;40.564;-7.958;2022-10-04T08:18:10;97875.41;;;19.38;49.88
61035;BME280;46916;40.564;-7.958;2022-10-04T08:21:16;97876.94;;;19.55;49.82
61035;BME280;46916;40.564;-7.958;2022-10-04T08:25:25;97880.16;;;19.82;48.80
61035;BME280;46916;40.564;-7.958;2022-10-04T08:30:18;97885.09;;;20.08;48.09
61035;BME280;46916;40.564;-7.958;2022-10-04T08:35:33;97884.59;;;20.27;47.60
61035;BME280;46916;40.564;-7.958;2022-10-04T08:42:21;97894.13;;;20.59;47.73
61035;BME280;46916;40.564;-7.958;2022-10-04T08:44:56;97891.59;;;20.66;47.71
61035;BME280;46916;40.564;-7.958;2022-10-04T08:47:37;97887.72;;;20.68;48.04
61035;BME280;46916;40.564;-7.958;2022-10-04T08:55:20;97900.19;;;20.68;47.99
61035;BME280;46916;40.564;-7.958;2022-10-04T08:58:13;97900.53;;;20.65;47.45
61035;BME280;46916;40.564;-7.958;2022-10-04T09:15:06;97914.78;;;20.72;48.27
61035;BME280;46916;40.564;-7.958;2022-10-04T09:17:21;97916.75;;;20.78;48.53
61035;BME280;46916;40.564;-7.958;2022-10-04T09:22:16;97919.66;;;20.83;46.74
61035;BME280;46916;40.564;-7.958;2022-10-04T09:26:49;97923.16;;;20.84;46.42
61035;BME280;46916;40.564;-7.958;2022-10-04T09:34:07;97921.41;;;21.06;46.13
61035;BME280;46916;40.564;-7.958;2022-10-04T09:43:28;97931.41;;;21.18;48.09
61035;BME280;46916;40.564;-7.958;2022-10-04T09:52:36;97936.19;;;21.38;47.78
61035;BME280;46916;40.564;-7.958;2022-10-04T10:08:35;97951.81;;;21.56;46.25
61035;BME280;46916;40.564;-7.958;2022-10-04T10:20:09;97946.88;;;21.74;44.41
61035;BME280;46916;40.564;-7.958;2022-10-04T10:34:58;97950.53;;;22.09;44.93
61035;BME280;46916;40.564;-7.958;2022-10-04T10:40:02;97946.75;;;22.18;45.33
61035;BME280;46916;40.564;-7.958;2022-10-04T10:44:40;97940.03;;;22.22;46.53
61035;BME280;46916;40.564;-7.958;2022-10-04T10:47:15;97935.75;;;22.28;46.04
61035;BME280;46916;40.564;-7.958;2022-10-04T11:09:29;97934.44;;;22.67;46.22
61035;BME280;46916;40.564;-7.958;2022-10-04T11:12:12;97937.28;;;22.65;46.63
61035;BME280;46916;40.564;-7.958;2022-10-04T11:17:05;97930.94;;;22.66;46.65
61035;BME280;46916;40.564;-7.958;2022-10-04T11:19:20;97929.72;;;22.69;46.47
61035;BME280;46916;40.564;-7.958;2022-10-04T11:24:27;97920.94;;;22.75;45.89
61035;BME280;46916;40.564;-7.958;2022-10-04T11:29:34;97921.16;;;22.80;45.39
61035;BME280;46916;40.564;-7.958;2022-10-04T11:40:44;97911.41;;;22.94;44.60
61035;BME280;46916;40.564;-7.958;2022-10-04T11:43:30;97914.72;;;22.96;44.21
61035;BME280;46916;40.564;-7.958;2022-10-04T11:53:28;97912.94;;;23.10;43.23
61035;BME280;46916;40.564;-7.958;2022-10-04T12:09:41;97907.13;;;23.41;44.96
61035;BME280;46916;40.564;-7.958;2022-10-04T12:16:44;97896.69;;;23.53;43.31
61035;BME280;46916;40.564;-7.958;2022-10-04T12:19:07;97890.09;;;23.55;43.67
61035;BME280;46916;40.564;-7.958;2022-10-04T12:24:12;97888.66;;;23.59;43.90
61035;BME280;46916;40.564;-7.958;2022-10-04T12:28:51;97887.50;;;23.68;44.00
61035;BME280;46916;40.564;-7.958;2022-10-04T12:31:14;97878.88;;;23.73;43.51
61035;BME280;46916;40.564;-7.958;2022-10-04T12:33:28;97882.97;;;23.76;42.88
61035;BME280;46916;40.564;-7.958;2022-10-04T12:57:46;97868.25;;;24.13;40.61
61035;BME280;46916;40.564;-7.958;2022-10-04T13:00:03;97860.81;;;24.15;40.39
61035;BME280;46916;40.564;-7.958;2022-10-04T13:04:51;97855.03;;;24.25;40.00
61035;BME280;46916;40.564;-7.958;2022-10-04T13:18:20;97834.69;;;24.43;38.63
61035;BME280;46916;40.564;-7.958;2022-10-04T13:23:02;97832.41;;;24.47;37.79
61035;BME280;46916;40.564;-7.958;2022-10-04T13:30:00;97820.25;;;24.51;37.32
61035;BME280;46916;40.564;-7.958;2022-10-04T13:32:21;97820.03;;;24.53;37.22
61035;BME280;46916;40.564;-7.958;2022-10-04T13:34:44;97822.53;;;24.54;37.04
61035;BME280;46916;40.564;-7.958;2022-10-04T13:48:48;97810.56;;;24.57;37.14
61035;BME280;46916;40.564;-7.958;2022-10-04T13:53:36;97810.13;;;24.60;37.06
61035;BME280;46916;40.564;-7.958;2022-10-04T13:56:18;97805.00;;;24.58;37.04
61035;BME280;46916;40.564;-7.958;2022-10-04T14:01:34;97792.44;;;24.59;36.98
61035;BME280;46916;40.564;-7.958;2022-10-04T14:13:25;97785.81;;;24.61;38.11
61035;BME280;46916;40.564;-7.958;2022-10-04T14:15:49;97781.31;;;24.62;37.84
61035;BME280;46916;40.564;-7.958;2022-10-04T14:44:39;97776.78;;;24.62;39.77
61035;BME280;46916;40.564;-7.958;2022-10-04T14:47:08;97774.91;;;24.63;40.24
61035;BME280;46916;40.564;-7.958;2022-10-04T15:01:25;97767.25;;;24.73;40.88
61035;BME280;46916;40.564;-7.958;2022-10-04T15:03:44;97763.75;;;24.73;41.12
61035;BME280;46916;40.564;-7.958;2022-10-04T15:10:35;97759.63;;;24.77;40.13
61035;BME280;46916;40.564;-7.958;2022-10-04T15:17:36;97751.41;;;24.71;40.11
61035;BME280;46916;40.564;-7.958;2022-10-04T15:22:12;97751.63;;;24.70;40.22
61035;BME280;46916;40.564;-7.958;2022-10-04T15:33:24;97751.22;;;24.66;40.11
61035;BME280;46916;40.564;-7.958;2022-10-04T15:43:24;97750.81;;;24.63;39.67
61035;BME280;46916;40.564;-7.958;2022-10-04T15:45:50;97748.34;;;24.61;39.89
61035;BME280;46916;40.564;-7.958;2022-10-04T15:52:43;97754.94;;;24.59;39.86
61035;BME280;46916;40.564;-7.958;2022-10-04T15:57:28;97739.31;;;24.56;40.17
61035;BME280;46916;40.564;-7.958;2022-10-04T15:59:47;97746.28;;;24.57;39.67
61035;BME280;46916;40.564;-7.958;2022-10-04T16:06:46;97752.50;;;24.51;39.70
61035;BME280;46916;40.564;-7.958;2022-10-04T16:18:50;97756.81;;;24.45;39.82
61035;BME280;46916;40.564;-7.958;2022-10-04T16:23:36;97751.09;;;24.41;40.37
61035;BME280;46916;40.564;-7.958;2022-10-04T16:25:39;97754.78;;;24.40;40.60
61035;BME280;46916;40.564;-7.958;2022-10-04T16:32:19;97745.13;;;24.39;40.68
61035;BME280;46916;40.564;-7.958;2022-10-04T16:36:49;97748.19;;;24.36;40.86
61035;BME280;46916;40.564;-7.958;2022-10-04T16:38:57;97752.94;;;24.34;41.02
61035;BME280;46916;40.564;-7.958;2022-10-04T16:41:31;97752.09;;;24.34;40.96
61035;BME280;46916;40.564;-7.958;2022-10-04T16:43:34;97744.28;;;24.32;41.57
61035;BME280;46916;40.564;-7.958;2022-10-04T16:55:27;97749.25;;;24.22;42.83
61035;BME280;46916;40.564;-7.958;2022-10-04T16:57:31;97748.63;;;24.20;43.07
61035;BME280;46916;40.564;-7.958;2022-10-04T17:11:42;97750.50;;;24.06;44.85
61035;BME280;46916;40.564;-7.958;2022-10-04T17:16:08;97753.41;;;23.98;45.11
61035;BME280;46916;40.564;-7.958;2022-10-04T17:27:55;97756.69;;;23.87;44.57
61035;BME280;46916;40.564;-7.958;2022-10-04T17:30:19;97765.97;;;23.84;44.49
61035;BME280;46916;40.564;-7.958;2022-10-04T17:36:49;97770.66;;;23.76;44.66
61035;BME280;46916;40.564;-7.958;2022-10-04T17:43:33;97779.69;;;23.61;44.68
61035;BME280;46916;40.564;-7.958;2022-10-04T17:46:36;97764.06;;;23.58;44.17
61035;BME280;46916;40.564;-7.958;2022-10-04T17:48:23;97769.59;;;23.50;43.62
61035;BME280;46916;40.564;-7.958;2022-10-04T17:53:19;97773.72;;;23.39;43.65
61035;BME280;46916;40.564;-7.958;2022-10-04T17:55:46;97777.81;;;23.35;43.69
61035;BME280;46916;40.564;-7.958;2022-10-04T17:58:03;97768.56;;;23.31;43.77
61035;BME280;46916;40.564;-7.958;2022-10-04T18:00:13;97783.53;;;23.26;43.86
61035;BME280;46916;40.564;-7.958;2022-10-04T18:02:21;97765.44;;;23.21;44.23
61035;BME280;46916;40.564;-7.958;2022-10-04T18:04:29;97777.56;;;23.17;44.34
61035;BME280;46916;40.564;-7.958;2022-10-04T18:06:37;97774.44;;;23.13;44.21
61035;BME280;46916;40.564;-7.958;2022-10-04T18:08:52;97772.38;;;23.09;44.57
61035;BME280;46916;40.564;-7.958;2022-10-04T18:11:05;97775.44;;;23.06;44.73
61035;BME280;46916;40.564;-7.958;2022-10-04T18:15:48;97769.06;;;23.00;44.82
61035;BME280;46916;40.564;-7.958;2022-10-04T18:17:49;97774.00;;;22.96;44.95
61035;BME280;46916;40.564;-7.958;2022-10-04T18:20:00;97764.72;;;22.92;45.23
61035;BME280;46916;40.564;-7.958;2022-10-04T18:22:17;97773.78;;;22.91;45.09
61035;BME280;46916;40.564;-7.958;2022-10-04T18:24:20;97773.53;;;22.86;45.29
61035;BME280;46916;40.564;-7.958;2022-10-04T18:26:24;97781.53;;;22.86;45.25
61035;BME280;46916;40.564;-7.958;2022-10-04T18:28:25;97776.59;;;22.83;45.46
61035;BME280;46916;40.564;-7.958;2022-10-04T18:30:26;97778.44;;;22.83;45.15
61035;BME280;46916;40.564;-7.958;2022-10-04T18:34:28;97773.28;;;22.81;45.45
61035;BME280;46916;40.564;-7.958;2022-10-04T18:36:49;97776.16;;;22.80;45.61
61035;BME280;46916;40.564;-7.958;2022-10-04T18:39:17;97776.38;;;22.78;45.51
61035;BME280;46916;40.564;-7.958;2022-10-04T18:41:20;97783.75;;;22.76;45.98
61035;BME280;46916;40.564;-7.958;2022-10-04T18:45:35;97786.78;;;22.73;46.04
61035;BME280;46916;40.564;-7.958;2022-10-04T18:47:39;97783.50;;;22.71;46.20
61035;BME280;46916;40.564;-7.958;2022-10-04T18:49:47;97789.03;;;22.69;46.17
61035;BME280;46916;40.564;-7.958;2022-10-04T18:54:14;97792.50;;;22.63;46.58
61035;BME280;46916;40.564;-7.958;2022-10-04T18:56:20;97789.41;;;22.60;46.89
61035;BME280;46916;40.564;-7.958;2022-10-04T18:59:29;97797.63;;;22.58;46.91
61035;BME280;46916;40.564;-7.958;2022-10-04T19:04:01;97796.53;;;22.53;47.67
61035;BME280;46916;40.564;-7.958;2022-10-04T19:10:38;97790.16;;;22.47;48.14
61035;BME280;46916;40.564;-7.958;2022-10-04T19:12:45;97800.41;;;22.43;48.38
61035;BME280;46916;40.564;-7.958;2022-10-04T19:17:14;97798.13;;;22.40;48.75
61035;BME280;46916;40.564;-7.958;2022-10-04T19:22:00;97804.25;;;22.34;48.86
61035;BME280;46916;40.564;-7.958;2022-10-04T19:26:13;97811.81;;;22.31;49.03
61035;BME280;46916;40.564;-7.958;2022-10-04T19:28:21;97810.34;;;22.28;48.66
61035;BME280;46916;40.564;-7.958;2022-10-04T19:37:31;97806.63;;;22.22;48.51
61035;BME280;46916;40.564;-7.958;2022-10-04T19:39:57;97805.00;;;22.21;47.89
61035;BME280;46916;40.564;-7.958;2022-10-04T19:42:16;97811.16;;;22.22;48.03
61035;BME280;46916;40.564;-7.958;2022-10-04T19:50:23;97817.25;;;22.16;48.76
61035;BME280;46916;40.564;-7.958;2022-10-04T19:51:58;97814.78;;;22.14;48.69
61035;BME280;46916;40.564;-7.958;2022-10-04T19:54:11;97822.09;;;22.12;49.09
61035;BME280;46916;40.564;-7.958;2022-10-04T19:56:19;97823.13;;;22.11;49.06
61035;BME280;46916;40.564;-7.958;2022-10-04T19:58:41;97821.69;;;22.09;48.78
61035;BME280;46916;40.564;-7.958;2022-10-04T20:00:47;97826.19;;;22.08;48.49
61035;BME280;46916;40.564;-7.958;2022-10-04T20:02:48;97829.25;;;22.05;48.54
61035;BME280;46916;40.564;-7.958;2022-10-04T20:04:49;97836.00;;;22.01;48.41
61035;BME280;46916;40.564;-7.958;2022-10-04T20:06:54;97832.88;;;21.97;48.84